Time;durP1;ratioP1;P1;durP2;ratioP2;P2;SDS_P1;SDS_P2;PMS_P1;PMS_P2;Temp;Humidity;BMP_temperature;BMP_pressure;BME280_temperature;BME280_humidity;BME280_pressure;Samples;Min_cycle;Max_cycle;Signal;HPM_P1;HPM_P2
2021/06/06 00:02:04;;;;;;;45.97;22.15;;;15.10;99.90;;;;;;5028268;28;20060;-68
2021/06/06 00:04:31;;;;;;;48.75;21.58;;;15.10;99.90;;;;;;5028100;28;20095;-69
2021/06/06 00:07:08;;;;;;;38.08;19.17;;;15.10;99.90;;;;;;5037590;28;20049;-68
2021/06/06 00:09:35;;;;;;;36.75;19.35;;;15.10;99.90;;;;;;5051594;28;20899;-69
2021/06/06 00:12:03;;;;;;;42.22;19.95;;;15.10;99.90;;;;;;5057098;28;20083;-69
2021/06/06 00:14:33;;;;;;;39.53;19.75;;;15.10;99.90;;;;;;5055102;28;22373;-69
2021/06/06 00:17:02;;;;;;;40.28;19.83;;;15.10;99.90;;;;;;5044876;28;20084;-68
2021/06/06 00:19:30;;;;;;;41.15;19.83;;;15.10;99.90;;;;;;5053012;28;20053;-69
2021/06/06 00:21:59;;;;;;;36.07;18.90;;;15.10;99.90;;;;;;5039564;28;20491;-69
2021/06/06 00:24:28;;;;;;;35.55;16.70;;;15.10;99.90;;;;;;5046107;28;20132;-69
2021/06/06 00:26:56;;;;;;;40.83;18.52;;;15.10;99.90;;;;;;5046438;28;20087;-69
2021/06/06 00:29:23;;;;;;;36.63;18.77;;;15.10;99.90;;;;;;5036786;28;20045;-68
2021/06/06 00:31:51;;;;;;;35.45;18.77;;;15.10;99.90;;;;;;5040028;28;20076;-68
2021/06/06 00:34:18;;;;;;;35.23;17.60;;;15.10;99.90;;;;;;5052500;28;20045;-68
2021/06/06 00:36:45;;;;;;;32.50;17.05;;;15.10;99.90;;;;;;5044161;28;20558;-69
2021/06/06 00:39:12;;;;;;;30.52;16.88;;;15.10;99.90;;;;;;5047470;28;21555;-69
2021/06/06 00:41:41;;;;;;;33.97;17.00;;;15.10;99.90;;;;;;5052963;28;20072;-69
2021/06/06 00:44:08;;;;;;;35.05;18.55;;;15.10;99.90;;;;;;5044243;28;20456;-69
2021/06/06 00:46:36;;;;;;;43.95;18.05;;;15.10;99.90;;;;;;5056142;28;20049;-69
2021/06/06 00:49:04;;;;;;;33.57;17.67;;;15.10;99.90;;;;;;5045853;28;20083;-68
2021/06/06 00:51:43;;;;;;;27.98;15.85;;;15.00;99.90;;;;;;5028671;28;20064;-69
2021/06/06 00:54:32;;;;;;;32.30;16.92;;;15.00;99.90;;;;;;5050083;28;20119;-68
2021/06/06 00:57:05;;;;;;;27.55;15.38;;;15.10;99.90;;;;;;5042971;28;20489;-69
2021/06/06 00:59:35;;;;;;;28.35;14.65;;;15.00;99.90;;;;;;5048697;28;20052;-69
2021/06/06 01:02:02;;;;;;;32.20;16.23;;;15.10;99.90;;;;;;5034052;28;20154;-69
2021/06/06 01:04:29;;;;;;;31.80;16.92;;;15.10;99.90;;;;;;5058555;28;20090;-69
2021/06/06 01:06:56;;;;;;;31.27;16.92;;;15.10;99.90;;;;;;5049383;28;20085;-69
2021/06/06 01:09:25;;;;;;;29.30;17.48;;;15.10;99.90;;;;;;5047279;28;20469;-69
2021/06/06 01:12:13;;;;;;;31.42;17.23;;;15.10;99.90;;;;;;5046554;28;20077;-69
2021/06/06 01:14:51;;;;;;;31.95;17.17;;;15.10;99.90;;;;;;5047531;28;20056;-69
2021/06/06 01:17:22;;;;;;;32.42;17.70;;;15.10;99.90;;;;;;5044106;28;20049;-69
2021/06/06 01:20:01;;;;;;;33.30;19.80;;;15.10;99.90;;;;;;5053856;28;20111;-69
2021/06/06 01:22:51;;;;;;;29.90;18.40;;;15.10;99.90;;;;;;5038696;28;20156;-69
2021/06/06 01:25:23;;;;;;;34.40;19.45;;;15.10;99.90;;;;;;5046144;28;20048;-69
2021/06/06 01:28:04;;;;;;;32.45;19.42;;;15.00;99.90;;;;;;5052912;28;20072;-69
2021/06/06 01:30:35;;;;;;;38.92;20.63;;;15.00;99.90;;;;;;5045504;28;20516;-69
2021/06/06 01:33:09;;;;;;;31.55;19.20;;;15.00;99.90;;;;;;5050581;28;20091;-69
2021/06/06 01:35:49;;;;;;;33.75;20.35;;;15.00;99.90;;;;;;5041742;28;20041;-69
2021/06/06 01:38:25;;;;;;;34.03;19.23;;;15.00;99.90;;;;;;5049228;28;20076;-69
2021/06/06 01:41:13;;;;;;;32.78;18.92;;;15.00;99.90;;;;;;5041794;28;20202;-69
2021/06/06 01:43:46;;;;;;;29.67;17.95;;;15.00;99.90;;;;;;5048669;28;20084;-69
2021/06/06 01:46:20;;;;;;;30.52;17.48;;;15.00;99.90;;;;;;5055639;28;20080;-69
2021/06/06 01:48:47;;;;;;;35.58;19.63;;;15.00;99.90;;;;;;5045228;28;20055;-68
2021/06/06 01:51:40;;;;;;;31.63;19.67;;;15.00;99.90;;;;;;5042733;28;20613;-69
2021/06/06 01:54:10;;;;;;;33.15;18.98;;;14.90;99.90;;;;;;5058399;28;20072;-69
2021/06/06 01:56:40;;;;;;;30.33;19.42;;;15.00;99.90;;;;;;5047863;28;20064;-69
2021/06/06 01:59:16;;;;;;;31.67;20.42;;;14.90;99.90;;;;;;5056753;28;20083;-69
2021/06/06 02:01:43;;;;;;;36.22;21.05;;;14.90;99.90;;;;;;5047194;28;20099;-68
2021/06/06 02:04:10;;;;;;;35.28;20.67;;;14.90;99.90;;;;;;5053140;28;20045;-69
2021/06/06 02:06:45;;;;;;;38.92;20.60;;;14.90;99.90;;;;;;5048351;28;20078;-69
2021/06/06 02:09:17;;;;;;;35.42;21.92;;;14.90;99.90;;;;;;5044972;28;20069;-69
2021/06/06 02:11:48;;;;;;;37.58;21.95;;;14.90;99.90;;;;;;5056290;28;20488;-69
2021/06/06 02:14:20;;;;;;;35.88;20.35;;;14.80;99.90;;;;;;5060339;28;20367;-69
2021/06/06 02:16:54;;;;;;;37.58;20.25;;;14.90;99.90;;;;;;5049871;28;20044;-68
2021/06/06 02:19:25;;;;;;;42.05;21.85;;;14.80;99.90;;;;;;5038900;28;20052;-69
2021/06/06 02:21:53;;;;;;;41.17;22.42;;;14.80;99.90;;;;;;5050279;28;20075;-69
2021/06/06 02:24:21;;;;;;;42.05;21.80;;;14.80;99.90;;;;;;5064412;28;20082;-69
2021/06/06 02:27:07;;;;;;;38.67;20.73;;;14.80;99.90;;;;;;5056294;28;20453;-69
2021/06/06 02:29:41;;;;;;;39.83;20.67;;;14.80;99.90;;;;;;5052843;28;20465;-68
2021/06/06 02:32:25;;;;;;;44.30;21.98;;;14.80;99.90;;;;;;5059929;28;20128;-69
2021/06/06 02:35:12;;;;;;;38.92;21.38;;;14.80;99.90;;;;;;5045663;28;20098;-69
2021/06/06 02:38:00;;;;;;;42.53;22.17;;;14.80;99.90;;;;;;5064741;28;20099;-69
2021/06/06 02:40:49;;;;;;;42.90;21.75;;;14.70;99.90;;;;;;5046983;28;20128;-69
2021/06/06 02:43:26;;;;;;;43.08;22.65;;;14.70;99.90;;;;;;5037450;28;20130;-69
2021/06/06 02:45:57;;;;;;;38.85;21.40;;;14.70;99.90;;;;;;5045499;28;20057;-69
2021/06/06 02:48:46;;;;;;;38.92;22.08;;;14.70;99.90;;;;;;5051418;28;20049;-69
2021/06/06 02:51:17;;;;;;;38.78;21.33;;;14.70;99.90;;;;;;5061618;28;20077;-69
2021/06/06 02:53:57;;;;;;;39.70;21.33;;;14.60;99.90;;;;;;5064126;28;20044;-69
2021/06/06 02:56:29;;;;;;;40.72;22.20;;;14.70;99.90;;;;;;5048437;28;20114;-69
2021/06/06 02:59:09;;;;;;;43.95;21.83;;;14.70;99.90;;;;;;5054572;28;20091;-69
2021/06/06 03:01:40;;;;;;;43.42;21.88;;;14.70;99.90;;;;;;5051467;28;20167;-70
2021/06/06 03:04:13;;;;;;;39.45;22.17;;;14.70;99.90;;;;;;5056435;28;20480;-69
2021/06/06 03:06:47;;;;;;;45.95;22.45;;;14.70;99.90;;;;;;5047310;28;20091;-69
2021/06/06 03:09:15;;;;;;;39.20;21.15;;;14.80;99.90;;;;;;5025146;28;20081;-69
2021/06/06 03:11:45;;;;;;;39.78;20.63;;;14.80;99.90;;;;;;5041629;28;20041;-69
2021/06/06 03:14:16;;;;;;;42.05;20.63;;;14.80;99.90;;;;;;5054926;28;21051;-69
2021/06/06 03:16:54;;;;;;;43.05;21.55;;;14.80;99.90;;;;;;5045294;28;20549;-69
2021/06/06 03:19:24;;;;;;;44.90;21.23;;;14.80;99.90;;;;;;5041727;28;20054;-69
2021/06/06 03:21:52;;;;;;;44.40;22.15;;;14.80;99.90;;;;;;5028063;28;20496;-69
2021/06/06 03:24:43;;;;;;;41.70;21.40;;;14.80;99.90;;;;;;5047837;28;20384;-69
2021/06/06 03:27:12;;;;;;;37.67;19.98;;;14.90;99.90;;;;;;5045619;28;20107;-69
2021/06/06 03:29:54;;;;;;;32.28;17.85;;;14.90;99.90;;;;;;5048134;28;20072;-69
2021/06/06 03:32:27;;;;;;;37.00;21.40;;;14.90;99.90;;;;;;5047339;28;20103;-69
2021/06/06 03:34:54;;;;;;;36.42;18.63;;;14.80;99.90;;;;;;5028209;28;20076;-69
2021/06/06 03:37:21;;;;;;;38.90;20.92;;;14.80;99.90;;;;;;5047344;28;20048;-69
2021/06/06 03:39:48;;;;;;;31.88;18.17;;;14.90;99.90;;;;;;5050984;28;20515;-69
2021/06/06 03:42:15;;;;;;;35.50;19.63;;;14.90;99.90;;;;;;5041625;28;20120;-69
2021/06/06 03:44:42;;;;;;;31.10;18.67;;;14.90;99.90;;;;;;5048632;28;20087;-69
2021/06/06 03:47:09;;;;;;;29.92;17.38;;;14.80;99.90;;;;;;5057674;28;20084;-69
2021/06/06 03:49:36;;;;;;;34.17;18.30;;;14.80;99.90;;;;;;5055887;28;20081;-69
2021/06/06 03:52:12;;;;;;;30.98;16.50;;;14.80;99.90;;;;;;5056046;28;20098;-69
2021/06/06 03:54:38;;;;;;;33.95;15.57;;;14.80;99.90;;;;;;5053444;28;20053;-69
2021/06/06 03:57:06;;;;;;;29.85;15.77;;;14.80;99.90;;;;;;5051557;28;20136;-69
2021/06/06 03:59:33;;;;;;;29.13;14.63;;;14.80;99.90;;;;;;5037673;28;20049;-69
2021/06/06 04:01:59;;;;;;;26.25;13.63;;;14.80;99.90;;;;;;5050379;28;20412;-69
2021/06/06 04:04:26;;;;;;;27.23;13.43;;;14.80;99.90;;;;;;5025291;28;20411;-68
2021/06/06 04:06:53;;;;;;;26.83;12.98;;;14.80;99.90;;;;;;5047607;28;20098;-69
2021/06/06 04:09:20;;;;;;;24.95;13.90;;;14.80;99.90;;;;;;5038860;28;20462;-69
2021/06/06 04:11:47;;;;;;;28.08;13.13;;;14.80;99.90;;;;;;5035553;28;20103;-68
2021/06/06 04:14:13;;;;;;;30.05;12.75;;;14.80;99.90;;;;;;5036255;28;20105;-68
2021/06/06 04:16:40;;;;;;;26.88;11.38;;;14.80;99.90;;;;;;5049964;28;20113;-69
2021/06/06 04:19:09;;;;;;;22.10;11.23;;;14.80;99.90;;;;;;5049950;28;20048;-69
2021/06/06 04:21:37;;;;;;;17.58;9.95;;;14.80;99.90;;;;;;5050872;28;20106;-69
2021/06/06 04:24:04;;;;;;;20.08;10.35;;;14.80;99.90;;;;;;5049782;28;20052;-69
2021/06/06 04:26:31;;;;;;;21.25;10.85;;;14.80;99.90;;;;;;5051379;28;20140;-69
2021/06/06 04:28:58;;;;;;;19.10;9.73;;;14.80;99.90;;;;;;5024012;28;20069;-69
2021/06/06 04:31:26;;;;;;;19.65;10.85;;;14.80;99.90;;;;;;5047322;28;20191;-68
2021/06/06 04:33:53;;;;;;;18.77;10.02;;;14.90;99.90;;;;;;5045065;28;22727;-69
2021/06/06 04:36:19;;;;;;;18.05;10.45;;;14.90;99.90;;;;;;5030637;28;20152;-69
2021/06/06 04:38:47;;;;;;;17.70;9.73;;;14.90;99.90;;;;;;5034021;28;20072;-69
2021/06/06 04:41:15;;;;;;;14.77;8.80;;;14.90;99.90;;;;;;5034657;28;20068;-69
2021/06/06 04:43:42;;;;;;;17.67;9.40;;;15.00;99.90;;;;;;5038167;28;20044;-69
2021/06/06 04:46:10;;;;;;;16.17;9.50;;;15.00;99.90;;;;;;5041628;28;20488;-69
2021/06/06 04:48:38;;;;;;;;;;;15.00;99.90;;;;;;5020996;28;20448;-69
2021/06/06 04:51:11;;;;;;;14.88;7.80;;;15.00;99.90;;;;;;5036175;28;20048;-69
2021/06/06 04:53:38;;;;;;;18.52;8.63;;;15.00;99.90;;;;;;5042844;28;20069;-69
2021/06/06 04:56:07;;;;;;;16.92;9.13;;;15.00;99.90;;;;;;5043013;28;20087;-68
2021/06/06 04:58:34;;;;;;;14.48;8.60;;;15.00;99.90;;;;;;5034798;28;20516;-69
2021/06/06 05:01:01;;;;;;;16.42;8.57;;;15.00;99.90;;;;;;5041949;28;20073;-69
2021/06/06 05:03:28;;;;;;;14.20;8.85;;;15.00;99.90;;;;;;5036724;28;20520;-68
2021/06/06 05:05:54;;;;;;;11.75;7.80;;;15.00;99.90;;;;;;5029078;28;20080;-69
2021/06/06 05:08:23;;;;;;;12.40;7.82;;;15.00;99.90;;;;;;5032249;28;20077;-69
2021/06/06 05:10:52;;;;;;;12.30;7.65;;;15.00;99.90;;;;;;5033353;28;20095;-68
2021/06/06 05:13:19;;;;;;;12.07;7.82;;;14.90;99.90;;;;;;5019410;28;20227;-68
2021/06/06 05:15:46;;;;;;;12.43;8.32;;;14.90;99.90;;;;;;5031715;28;20069;-68
2021/06/06 05:18:13;;;;;;;11.85;7.68;;;14.90;99.90;;;;;;5034911;28;20068;-68
2021/06/06 05:20:44;;;;;;;13.55;7.57;;;14.90;99.90;;;;;;5025456;28;20079;-68
2021/06/06 05:23:17;;;;;;;11.95;7.25;;;14.90;99.90;;;;;;5037085;28;20049;-68
2021/06/06 05:25:44;;;;;;;11.50;7.93;;;14.80;99.90;;;;;;5046842;28;20363;-68
2021/06/06 05:28:15;;;;;;;13.05;7.95;;;14.80;99.90;;;;;;5036286;28;20045;-69
2021/06/06 05:30:43;;;;;;;11.68;7.63;;;14.80;99.90;;;;;;5032475;28;20046;-68
2021/06/06 05:33:10;;;;;;;14.60;7.93;;;14.80;99.90;;;;;;5035410;28;20087;-68
2021/06/06 05:35:40;;;;;;;12.07;6.97;;;14.80;99.90;;;;;;5041174;28;20134;-69
2021/06/06 05:38:09;;;;;;;12.82;7.65;;;14.80;99.90;;;;;;5053416;28;20517;-68
2021/06/06 05:40:38;;;;;;;11.93;7.68;;;14.80;99.90;;;;;;5026054;28;20085;-68
2021/06/06 05:43:06;;;;;;;11.60;7.97;;;14.80;99.90;;;;;;5040990;28;20471;-68
2021/06/06 05:45:33;;;;;;;12.47;7.70;;;14.80;99.90;;;;;;5048369;28;20072;-68
2021/06/06 05:48:00;;;;;;;12.30;8.00;;;14.80;99.90;;;;;;5039306;28;20145;-68
2021/06/06 05:50:31;;;;;;;13.32;8.68;;;14.80;99.90;;;;;;5038559;28;20179;-68
2021/06/06 05:52:58;;;;;;;12.07;7.78;;;14.80;99.90;;;;;;5042412;28;20076;-69
2021/06/06 05:55:25;;;;;;;11.55;7.97;;;14.80;99.90;;;;;;5043509;28;20068;-69
2021/06/06 05:57:56;;;;;;;12.10;7.60;;;14.80;99.90;;;;;;5022545;28;20477;-69
2021/06/06 06:00:30;;;;;;;12.07;7.63;;;14.70;99.90;;;;;;5035910;28;21620;-68
2021/06/06 06:03:40;;;;;;;11.82;7.50;;;14.70;99.90;;;;;;5015163;28;20144;-68
2021/06/06 06:13:28;;;;;;;;;;;14.80;99.90;;;;;;5034931;28;20471;-68
2021/06/06 06:15:56;;;;;;;10.00;6.63;;;14.80;99.90;;;;;;5034580;28;19972;-69
2021/06/06 06:18:26;;;;;;;13.27;7.20;;;14.90;99.90;;;;;;5036748;28;20441;-68
2021/06/06 06:20:54;;;;;;;12.70;7.57;;;14.90;99.90;;;;;;5021922;28;20409;-68
2021/06/06 06:23:21;;;;;;;11.32;8.07;;;14.90;99.90;;;;;;5035448;28;20073;-68
2021/06/06 06:25:49;;;;;;;10.80;7.40;;;15.00;99.90;;;;;;5032571;28;20231;-69
2021/06/06 06:28:16;;;;;;;12.20;7.97;;;15.00;99.90;;;;;;5036676;28;20076;-69
2021/06/06 06:30:43;;;;;;;12.68;8.80;;;15.10;99.90;;;;;;5036562;28;20069;-68
2021/06/06 06:33:11;;;;;;;12.00;8.03;;;15.10;99.90;;;;;;5046083;28;20456;-69
2021/06/06 06:35:38;;;;;;;13.98;8.88;;;15.20;99.90;;;;;;5041510;28;20118;-69
2021/06/06 06:38:06;;;;;;;14.20;9.47;;;15.20;99.90;;;;;;5043079;28;20147;-68
2021/06/06 06:40:34;;;;;;;16.80;10.27;;;15.20;99.90;;;;;;5045460;28;20139;-68
2021/06/06 06:43:02;;;;;;;14.05;9.25;;;15.20;99.90;;;;;;5045684;28;20416;-69
2021/06/06 06:45:32;;;;;;;12.45;8.88;;;15.20;99.90;;;;;;5048341;28;20096;-69
2021/06/06 06:48:03;;;;;;;11.68;8.88;;;15.30;99.90;;;;;;5032890;28;20075;-69
2021/06/06 06:50:31;;;;;;;12.88;9.50;;;15.30;99.90;;;;;;5015160;28;20208;-69
2021/06/06 06:52:58;;;;;;;15.93;9.80;;;15.40;99.90;;;;;;5036148;28;20135;-68
2021/06/06 06:55:25;;;;;;;13.32;8.93;;;15.50;99.90;;;;;;5032638;28;20349;-68
2021/06/06 06:57:54;;;;;;;11.73;9.32;;;15.70;99.90;;;;;;5032120;28;20573;-68
2021/06/06 07:00:27;;;;;;;13.52;8.95;;;15.90;99.90;;;;;;5030528;28;20084;-68
2021/06/06 07:03:01;;;;;;;12.52;9.30;;;16.10;99.90;;;;;;5042640;28;20079;-68
2021/06/06 07:05:29;;;;;;;13.25;9.00;;;16.20;99.90;;;;;;5038056;28;20739;-69
2021/06/06 07:07:56;;;;;;;14.82;9.43;;;16.20;99.90;;;;;;5037473;28;20053;-68
2021/06/06 07:10:28;;;;;;;11.50;9.33;;;16.20;99.90;;;;;;5031136;28;20499;-69
2021/06/06 07:12:56;;;;;;;12.25;9.18;;;16.20;99.90;;;;;;5035452;28;20072;-68
2021/06/06 07:15:23;;;;;;;11.27;8.88;;;16.20;99.90;;;;;;5037847;28;20102;-69
2021/06/06 07:18:04;;;;;;;13.55;9.05;;;16.20;99.90;;;;;;5034951;28;20792;-68
2021/06/06 07:20:35;;;;;;;11.43;8.52;;;16.30;99.90;;;;;;5046319;28;20077;-68
2021/06/06 07:23:07;;;;;;;11.65;8.13;;;16.40;99.90;;;;;;5043606;28;20219;-69
2021/06/06 07:25:34;;;;;;;11.50;9.02;;;16.40;99.90;;;;;;5060022;28;20136;-69
2021/06/06 07:28:03;;;;;;;13.18;7.97;;;16.50;99.90;;;;;;5027186;28;20045;-69
2021/06/06 07:30:34;;;;;;;12.32;8.98;;;16.60;99.90;;;;;;5034489;28;20042;-69
2021/06/06 07:33:01;;;;;;;11.43;8.50;;;16.60;99.90;;;;;;5031346;28;20061;-69
2021/06/06 07:35:32;;;;;;;11.40;8.75;;;16.70;99.90;;;;;;5035647;28;20549;-69
2021/06/06 07:38:00;;;;;;;15.02;8.80;;;16.80;99.90;;;;;;5033064;28;20089;-69
2021/06/06 07:40:32;;;;;;;11.40;8.60;;;17.00;99.90;;;;;;5022638;28;20053;-69
2021/06/06 07:42:58;;;;;;;8.73;6.75;;;17.10;99.90;;;;;;5031587;28;20127;-69
2021/06/06 07:45:26;;;;;;;11.85;7.70;;;17.20;99.90;;;;;;5035115;28;20168;-68
2021/06/06 07:47:54;;;;;;;10.63;7.38;;;17.30;99.90;;;;;;5028991;28;20056;-69
2021/06/06 07:50:25;;;;;;;10.88;8.23;;;17.40;99.90;;;;;;5033175;28;20045;-69
2021/06/06 07:52:52;;;;;;;10.50;7.22;;;17.50;99.90;;;;;;5039185;28;20103;-69
2021/06/06 07:55:21;;;;;;;10.77;8.02;;;17.50;99.90;;;;;;5056770;28;20263;-69
2021/06/06 07:57:48;;;;;;;8.48;6.10;;;17.60;99.90;;;;;;5046686;28;20092;-69
2021/06/06 08:00:32;;;;;;;9.40;6.60;;;17.70;99.90;;;;;;5030671;28;20442;-69
2021/06/06 08:02:59;;;;;;;9.38;6.25;;;17.70;99.90;;;;;;5046121;28;20500;-69
2021/06/06 08:05:26;;;;;;;8.80;5.85;;;17.90;99.90;;;;;;5053376;28;20108;-69
2021/06/06 08:07:53;;;;;;;10.65;6.95;;;17.90;99.90;;;;;;5052982;28;20128;-69
2021/06/06 08:10:23;;;;;;;8.27;5.38;;;18.00;99.90;;;;;;5053871;28;20419;-69
2021/06/06 08:12:50;;;;;;;7.05;4.50;;;18.00;99.90;;;;;;5075686;28;20080;-70
2021/06/06 08:15:19;;;;;;;6.75;4.57;;;18.10;99.90;;;;;;5078489;28;20540;-69
2021/06/06 08:17:45;;;;;;;;;;;18.10;99.90;;;;;;5055536;28;20076;-69
2021/06/06 08:20:19;;;;;;;8.50;5.57;;;18.20;99.90;;;;;;5056089;28;19972;-69
2021/06/06 08:22:46;;;;;;;7.35;5.55;;;18.30;99.90;;;;;;5051409;28;20049;-69
2021/06/06 08:25:14;;;;;;;9.32;5.90;;;18.40;99.90;;;;;;5076966;28;20177;-69
2021/06/06 08:27:43;;;;;;;8.10;5.57;;;18.50;99.90;;;;;;5040543;28;20084;-69
2021/06/06 08:30:42;;;;;;;7.75;6.07;;;18.50;99.90;;;;;;5074623;28;20057;-69
2021/06/06 08:33:10;;;;;;;8.75;5.57;;;18.50;99.90;;;;;;5050899;28;20087;-69
2021/06/06 08:35:51;;;;;;;8.07;5.25;;;18.40;99.90;;;;;;5050237;28;20045;-69
2021/06/06 08:38:18;;;;;;;8.27;5.07;;;18.30;99.90;;;;;;5055871;28;20072;-69
2021/06/06 08:40:53;;;;;;;6.78;4.35;;;18.30;99.90;;;;;;5048969;28;20464;-70
2021/06/06 08:43:25;;;;;;;5.88;4.45;;;18.30;99.90;;;;;;5045130;28;20070;-70
2021/06/06 08:45:58;;;;;;;6.85;4.85;;;18.30;99.90;;;;;;5050205;28;20048;-69
2021/06/06 08:48:28;;;;;;;7.95;4.65;;;18.30;99.90;;;;;;5051296;28;20063;-69
2021/06/06 08:51:07;;;;;;;6.65;4.78;;;18.30;99.90;;;;;;5053205;28;20077;-69
2021/06/06 08:54:02;;;;;;;6.30;4.60;;;18.30;99.90;;;;;;5061769;28;20108;-69
2021/06/06 08:56:33;;;;;;;6.78;4.57;;;18.30;99.90;;;;;;5050033;28;20653;-69
2021/06/06 08:59:17;;;;;;;7.97;4.72;;;18.30;99.90;;;;;;5045488;28;20487;-69
2021/06/06 09:02:00;;;;;;;6.30;4.38;;;18.30;99.90;;;;;;5057570;28;20076;-69
2021/06/06 09:04:30;;;;;;;8.15;4.28;;;18.20;99.90;;;;;;5055194;28;20076;-69
2021/06/06 09:07:19;;;;;;;4.95;3.47;;;18.20;99.90;;;;;;5050371;28;20044;-69
2021/06/06 09:09:50;;;;;;;5.95;4.25;;;18.10;99.90;;;;;;5043301;28;20116;-69
2021/06/06 09:12:21;;;;;;;7.32;3.70;;;18.10;99.90;;;;;;5054952;28;20104;-69
2021/06/06 09:14:50;;;;;;;7.32;3.42;;;18.10;99.90;;;;;;5073854;28;20041;-69
2021/06/06 09:17:31;;;;;;;6.00;3.75;;;18.20;99.90;;;;;;5053348;28;20555;-69
2021/06/06 09:19:59;;;;;;;5.72;3.33;;;18.30;99.90;;;;;;5042416;28;20127;-69
2021/06/06 09:22:41;;;;;;;5.05;3.13;;;18.40;99.90;;;;;;5068476;28;20088;-69
2021/06/06 09:25:16;;;;;;;3.97;3.05;;;18.40;99.90;;;;;;5056537;28;20056;-69
2021/06/06 09:27:43;;;;;;;6.15;3.17;;;18.50;99.90;;;;;;5044005;28;20103;-69
2021/06/06 09:30:15;;;;;;;4.30;2.53;;;18.60;99.90;;;;;;5064427;28;20466;-69
2021/06/06 09:32:43;;;;;;;3.30;2.30;;;18.60;99.90;;;;;;5053255;28;20424;-69
2021/06/06 09:35:24;;;;;;;5.15;2.38;;;18.60;99.90;;;;;;5070333;28;20080;-69
2021/06/06 09:38:05;;;;;;;4.65;2.67;;;18.80;99.90;;;;;;5051861;28;20113;-69
2021/06/06 09:40:39;;;;;;;3.13;2.22;;;18.80;99.90;;;;;;5036790;28;20076;-69
2021/06/06 09:43:06;;;;;;;4.72;2.58;;;18.80;99.90;;;;;;5053569;28;20072;-69
2021/06/06 09:45:36;;;;;;;4.90;2.33;;;18.90;99.90;;;;;;5059592;28;20076;-69
2021/06/06 09:48:16;;;;;;;4.90;2.50;;;18.90;99.90;;;;;;5056263;28;20456;-69
2021/06/06 09:51:11;;;;;;;3.15;2.10;;;19.10;99.90;;;;;;5057737;28;20548;-69
2021/06/06 09:53:39;;;;;;;4.82;2.78;;;19.20;99.90;;;;;;5058058;28;20087;-69
2021/06/06 09:56:14;;;;;;;;;;;19.30;99.90;;;;;;5053850;28;20127;-69
2021/06/06 09:58:42;;;;;;;5.60;2.40;;;19.50;99.90;;;;;;5050666;28;20337;-69
2021/06/06 10:01:23;;;;;;;4.22;2.50;;;19.50;99.90;;;;;;5062283;28;20142;-69
2021/06/06 10:04:00;;;;;;;5.15;2.70;;;19.50;99.90;;;;;;5063324;28;20085;-69
2021/06/06 10:06:40;;;;;;;3.92;2.22;;;19.50;99.90;;;;;;5054593;28;20539;-69
2021/06/06 10:09:17;;;;;;;6.00;2.70;;;19.50;99.90;;;;;;5056668;28;20432;-70
2021/06/06 10:12:05;;;;;;;3.40;2.25;;;19.50;99.90;;;;;;5067568;28;20485;-70
2021/06/06 10:14:45;;;;;;;4.45;2.53;;;19.40;99.90;;;;;;5060486;28;20044;-69
2021/06/06 10:17:16;;;;;;;3.67;2.00;;;19.40;99.90;;;;;;5053619;28;20072;-70
2021/06/06 10:20:17;;;;;;;6.07;2.55;;;19.50;99.90;;;;;;5062862;28;20044;-69
2021/06/06 10:23:01;;;;;;;3.97;2.60;;;19.60;99.90;;;;;;5006664;28;20084;-70
2021/06/06 10:25:40;;;;;;;4.03;2.25;;;19.80;99.90;;;;;;5052962;28;20441;-70
2021/06/06 10:28:08;;;;;;;4.53;2.40;;;19.80;99.90;;;;;;5066504;28;20049;-69
2021/06/06 10:31:02;;;;;;;3.47;2.30;;;19.70;99.90;;;;;;5066153;28;20069;-70
2021/06/06 10:33:51;;;;;;;3.42;2.20;;;19.80;99.90;;;;;;5054339;28;20054;-69
2021/06/06 10:36:21;;;;;;;3.40;2.00;;;19.80;99.90;;;;;;5048759;28;20072;-69
2021/06/06 10:38:48;;;;;;;6.60;2.10;;;19.90;99.90;;;;;;5054226;28;20110;-69
2021/06/06 10:41:22;;;;;;;2.73;1.90;;;19.90;99.90;;;;;;5051250;28;20069;-70
2021/06/06 10:44:15;;;;;;;3.65;2.10;;;19.90;99.90;;;;;;5047680;28;20081;-69
2021/06/06 10:46:48;;;;;;;4.20;2.10;;;20.00;99.90;;;;;;5037345;28;20105;-69
2021/06/06 10:49:28;;;;;;;4.18;1.92;;;20.00;99.90;;;;;;5067300;28;20044;-69
2021/06/06 10:52:21;;;;;;;3.08;2.00;;;20.00;99.90;;;;;;5055849;28;20166;-70
2021/06/06 10:54:51;;;;;;;4.50;1.73;;;20.00;99.90;;;;;;5039103;28;20045;-69
2021/06/06 10:57:36;;;;;;;3.20;1.83;;;20.00;99.90;;;;;;5051142;28;20412;-69
2021/06/06 11:00:21;;;;;;;4.63;1.73;;;20.20;99.90;;;;;;5052165;28;20216;-69
2021/06/06 11:03:22;;;;;;;2.92;1.90;;;20.30;99.90;;;;;;5046656;28;20064;-69
2021/06/06 11:05:52;;;;;;;4.50;2.00;;;20.40;99.90;;;;;;5046920;28;20702;-70
2021/06/06 11:08:27;;;;;;;3.55;1.65;;;20.50;99.90;;;;;;5054774;28;20456;-69
2021/06/06 11:11:08;;;;;;;2.70;1.90;;;20.60;99.90;;;;;;5047796;28;20077;-70
2021/06/06 11:13:37;;;;;;;3.13;2.05;;;20.60;99.90;;;;;;5048165;28;20530;-69
2021/06/06 11:16:15;;;;;;;4.03;1.70;;;20.70;99.90;;;;;;5051198;28;20081;-69
2021/06/06 11:19:14;;;;;;;2.13;1.65;;;20.70;99.90;;;;;;5063320;28;20076;-69
2021/06/06 11:21:44;;;;;;;4.05;1.80;;;20.70;99.90;;;;;;5052196;28;20137;-70
2021/06/06 11:24:25;;;;;;;4.30;1.50;;;20.80;99.90;;;;;;5054289;28;20480;-69
2021/06/06 11:27:18;;;;;;;2.75;1.40;;;20.70;99.90;;;;;;5043682;28;20454;-69
2021/06/06 11:30:00;;;;;;;2.20;1.13;;;20.70;99.90;;;;;;5057831;28;20080;-69
2021/06/06 11:32:47;;;;;;;3.08;1.30;;;20.70;99.90;;;;;;5037475;28;20100;-69
2021/06/06 11:35:40;;;;;;;2.92;1.33;;;20.70;99.90;;;;;;5048366;28;20048;-69
2021/06/06 11:38:36;;;;;;;2.33;1.20;;;20.70;99.90;;;;;;5017102;28;20105;-69
2021/06/06 11:41:08;;;;;;;2.72;1.13;;;20.70;99.90;;;;;;5043416;28;20049;-69
2021/06/06 11:43:46;;;;;;;1.55;1.10;;;20.80;99.90;;;;;;5042845;28;20072;-69
2021/06/06 11:46:31;;;;;;;1.60;1.00;;;20.80;99.90;;;;;;5042258;28;20128;-69
2021/06/06 11:49:27;;;;;;;2.55;0.90;;;20.80;99.90;;;;;;5027640;28;20079;-68
2021/06/06 11:51:57;;;;;;;1.20;0.90;;;20.80;99.90;;;;;;5039716;28;20080;-69
2021/06/06 11:54:36;;;;;;;1.80;0.75;;;20.80;99.90;;;;;;5043656;28;20076;-69
2021/06/06 11:57:16;;;;;;;0.73;0.68;;;20.80;99.90;;;;;;5042894;28;20128;-69
2021/06/06 12:00:29;;;;;;;1.83;0.85;;;20.90;99.90;;;;;;5039723;28;20084;-69
2021/06/06 12:03:16;;;;;;;1.05;0.80;;;20.90;99.90;;;;;;5037953;28;20179;-69
2021/06/06 12:06:06;;;;;;;2.97;0.80;;;20.90;99.90;;;;;;5039127;28;20135;-70
2021/06/06 12:08:37;;;;;;;0.85;0.70;;;20.90;99.90;;;;;;5043316;28;20073;-69
2021/06/06 12:11:30;;;;;;;1.02;0.60;;;20.90;99.90;;;;;;5040492;28;20131;-69
2021/06/06 12:14:29;;;;;;;2.22;0.60;;;20.90;99.90;;;;;;5042887;28;20196;-69
2021/06/06 12:17:03;;;;;;;3.50;0.80;;;21.00;99.90;;;;;;5028405;28;20076;-69
2021/06/06 12:19:45;;;;;;;1.15;0.70;;;21.00;99.90;;;;;;5043532;28;20049;-69
2021/06/06 12:22:14;;;;;;;1.60;0.68;;;21.00;99.90;;;;;;5041310;28;20484;-69
2021/06/06 12:25:09;;;;;;;1.75;0.70;;;21.10;99.90;;;;;;5027550;28;20049;-69
2021/06/06 12:27:43;;;;;;;1.65;0.80;;;21.10;99.90;;;;;;5022058;28;20129;-69
2021/06/06 12:30:33;;;;;;;1.15;0.57;;;21.20;99.90;;;;;;5041727;28;20493;-69
2021/06/06 12:33:32;;;;;;;2.55;0.80;;;21.20;99.90;;;;;;5039480;28;20121;-69
2021/06/06 12:36:14;;;;;;;1.17;0.70;;;21.30;99.90;;;;;;5054621;28;20127;-69
2021/06/06 12:38:44;;;;;;;1.58;0.60;;;21.30;99.90;;;;;;5040493;28;20464;-69
2021/06/06 12:41:12;;;;;;;1.45;0.63;;;21.30;99.90;;;;;;5057764;28;20102;-69
2021/06/06 12:43:45;;;;;;;1.08;0.60;;;21.30;99.90;;;;;;5045818;28;20132;-69
2021/06/06 12:46:12;;;;;;;1.27;0.68;;;21.40;99.90;;;;;;5041671;28;20607;-70
2021/06/06 12:49:02;;;;;;;1.70;0.70;;;21.40;99.90;;;;;;5035793;28;20052;-69
2021/06/06 12:51:37;;;;;;;2.28;0.80;;;21.30;99.90;;;;;;5016572;28;20128;-69
2021/06/06 12:54:14;;;;;;;1.10;0.50;;;21.40;99.90;;;;;;5043652;28;20171;-69
2021/06/06 12:56:42;;;;;;;0.95;0.60;;;21.30;99.90;;;;;;5039075;28;20041;-69
2021/06/06 12:59:20;;;;;;;3.25;0.93;;;21.40;99.90;;;;;;5042968;28;20072;-70
2021/06/06 13:01:48;;;;;;;2.10;0.60;;;21.40;99.90;;;;;;5037496;28;20477;-70
2021/06/06 13:04:26;;;;;;;3.25;0.70;;;21.40;99.90;;;;;;5041047;28;20048;-70
2021/06/06 13:06:54;;;;;;;1.88;0.60;;;21.40;99.90;;;;;;5040391;28;20534;-70
2021/06/06 13:09:29;;;;;;;2.33;0.60;;;21.40;99.90;;;;;;5039471;28;21022;-69
2021/06/06 13:12:13;;;;;;;1.83;0.57;;;21.50;99.90;;;;;;5036456;28;20669;-70
2021/06/06 13:15:17;;;;;;;2.03;0.80;;;21.50;99.90;;;;;;5041492;28;20055;-70
2021/06/06 13:17:44;;;;;;;1.92;0.70;;;21.50;99.90;;;;;;5034751;28;20048;-70
2021/06/06 13:20:18;;;;;;;3.72;0.60;;;21.50;99.90;;;;;;5042143;28;20076;-70